Time;durP1;ratioP1;P1;durP2;ratioP2;P2;SDS_P1;SDS_P2;PMS_P1;PMS_P2;Temp;Humidity;BMP_temperature;BMP_pressure;BME280_temperature;BME280_humidity;BME280_pressure;Samples;Min_cycle;Max_cycle;Signal;HPM_P1;HPM_P2
2020/12/05 00:02:16;;;;;;;9.07;6.57;;;4.20;99.90;;;;;;5118140;28;20446;-83
2020/12/05 00:04:43;;;;;;;9.40;6.57;;;4.30;99.90;;;;;;5118366;28;20502;-82
2020/12/05 00:07:09;;;;;;;9.13;6.30;;;4.30;99.90;;;;;;5117903;28;20594;-83
2020/12/05 00:09:37;;;;;;;6.60;5.60;;;4.30;99.90;;;;;;5118209;28;20509;-83
2020/12/05 00:12:08;;;;;;;8.03;6.50;;;4.30;99.90;;;;;;5117991;28;20443;-84
2020/12/05 00:14:36;;;;;;;10.47;6.13;;;4.30;99.90;;;;;;5118384;28;20412;-84
2020/12/05 00:17:07;;;;;;;8.70;6.67;;;4.30;99.90;;;;;;5118421;28;20455;-83
2020/12/05 00:19:33;;;;;;;9.30;6.33;;;4.30;99.90;;;;;;5118726;28;20764;-83
2020/12/05 00:22:00;;;;;;;9.03;7.00;;;4.30;99.90;;;;;;5118567;28;20448;-82
2020/12/05 00:24:26;;;;;;;7.30;5.50;;;4.40;99.90;;;;;;5118107;28;20563;-83
2020/12/05 00:26:54;;;;;;;7.60;5.90;;;4.40;99.90;;;;;;5117180;28;20482;-83
2020/12/05 00:29:22;;;;;;;8.63;6.17;;;4.50;99.90;;;;;;5117606;28;20452;-83
2020/12/05 00:31:51;;;;;;;8.07;6.93;;;4.50;99.90;;;;;;5121231;28;20473;-83
2020/12/05 00:34:18;;;;;;;7.10;5.20;;;4.60;99.90;;;;;;5122986;28;20442;-84
2020/12/05 00:36:44;;;;;;;9.00;6.20;;;4.60;99.90;;;;;;5122841;28;20448;-84
2020/12/05 00:39:11;;;;;;;9.40;5.63;;;4.60;99.90;;;;;;5121863;28;20493;-83
2020/12/05 00:44:41;;;;;;;6.70;5.40;;;4.70;99.90;;;;;;5113194;28;20514;-83
2020/12/05 00:47:08;;;;;;;7.80;5.93;;;4.70;99.90;;;;;;5120245;28;20503;-84
2020/12/05 00:49:35;;;;;;;8.17;6.27;;;4.70;99.90;;;;;;5120070;28;20843;-83
2020/12/05 00:52:01;;;;;;;7.77;5.80;;;4.70;99.90;;;;;;5119817;28;20493;-83
2020/12/05 00:54:28;;;;;;;8.37;5.70;;;4.70;99.90;;;;;;5105712;28;20454;-84
2020/12/05 00:56:54;;;;;;;7.27;6.30;;;4.70;99.90;;;;;;5121584;28;20495;-83
2020/12/05 00:59:21;;;;;;;9.43;5.83;;;4.70;99.90;;;;;;5122191;28;20442;-84
2020/12/05 01:01:53;;;;;;;11.33;6.40;;;4.60;99.90;;;;;;5137150;28;20452;-84
2020/12/05 01:04:20;;;;;;;7.83;6.60;;;4.60;99.90;;;;;;5132126;28;20445;-84
2020/12/05 01:06:47;;;;;;;7.00;5.73;;;4.60;99.90;;;;;;5129639;28;20477;-84
2020/12/05 01:09:14;;;;;;;6.77;5.50;;;4.60;99.90;;;;;;5122337;28;20454;-84
2020/12/05 01:11:40;;;;;;;8.63;5.17;;;4.70;99.90;;;;;;5121539;28;20479;-84
2020/12/05 01:14:10;;;;;;;7.40;5.80;;;4.70;99.90;;;;;;5121525;28;20452;-93
2020/12/05 01:16:36;;;;;;;5.67;5.17;;;4.60;99.90;;;;;;5114562;28;20836;-84
2020/12/05 01:19:03;;;;;;;9.10;7.23;;;4.70;99.90;;;;;;5101353;28;20460;-83
2020/12/05 01:21:30;;;;;;;7.10;6.33;;;4.80;99.90;;;;;;5118756;28;20517;-82
2020/12/05 01:23:57;;;;;;;9.33;6.40;;;4.80;99.90;;;;;;5121459;28;20502;-81
2020/12/05 01:26:24;;;;;;;9.00;7.10;;;4.80;99.90;;;;;;5122424;28;20997;-82
2020/12/05 01:28:51;;;;;;;8.47;5.60;;;4.80;99.90;;;;;;5116236;28;20453;-83
2020/12/05 01:31:17;;;;;;;7.27;5.90;;;4.80;99.90;;;;;;5102040;28;20447;-83
2020/12/05 01:33:44;;;;;;;79.57;13.40;;;4.90;99.90;;;;;;5104439;28;20459;-82
2020/12/05 01:36:10;;;;;;;7.33;6.10;;;4.90;99.90;;;;;;5108637;28;20980;-84
2020/12/05 01:38:38;;;;;;;7.63;6.03;;;5.00;99.90;;;;;;5122799;28;20513;-82
2020/12/05 01:41:05;;;;;;;7.50;6.00;;;5.00;99.90;;;;;;5125422;28;20442;-82
2020/12/05 01:43:32;;;;;;;7.70;5.60;;;5.10;99.90;;;;;;5122693;28;20564;-82
2020/12/05 01:46:01;;;;;;;8.73;5.90;;;5.10;99.90;;;;;;5126624;28;20443;-83
2020/12/05 01:48:27;;;;;;;7.90;5.50;;;5.10;99.90;;;;;;5107070;28;20492;-83
2020/12/05 01:50:55;;;;;;;7.87;6.33;;;5.20;99.90;;;;;;5106234;28;20448;-82
2020/12/05 01:53:22;;;;;;;8.73;6.53;;;5.20;99.90;;;;;;5104765;28;20446;-83
2020/12/05 01:55:50;;;;;;;7.17;5.60;;;5.20;99.90;;;;;;5123505;28;20479;-83
2020/12/05 01:58:18;;;;;;;7.60;5.70;;;5.20;99.90;;;;;;5124766;28;20494;-83
2020/12/05 02:00:45;;;;;;;8.30;5.70;;;5.20;99.90;;;;;;5126380;28;20451;-84
2020/12/05 02:03:14;;;;;;;6.30;5.57;;;5.20;99.90;;;;;;5125107;28;20505;-84
2020/12/05 02:05:55;;;;;;;7.93;6.20;;;5.30;99.90;;;;;;5125404;28;20451;-84
2020/12/05 02:08:29;;;;;;;9.17;6.17;;;5.30;99.90;;;;;;5124849;28;20468;-82
2020/12/05 02:10:59;;;;;;;6.50;5.90;;;5.30;99.90;;;;;;5124342;28;20493;-82
2020/12/05 02:13:31;;;;;;;8.50;6.60;;;5.30;99.90;;;;;;5123146;28;20536;-83
2020/12/05 02:15:58;;;;;;;10.63;5.97;;;5.30;99.90;;;;;;5108923;28;20438;-83
2020/12/05 02:18:27;;;;;;;8.80;6.67;;;5.30;99.90;;;;;;5112121;28;20517;-83
2020/12/05 02:20:58;;;;;;;7.17;6.27;;;5.40;99.90;;;;;;5101453;28;20835;-83
2020/12/05 02:23:27;;;;;;;7.13;6.43;;;5.40;99.90;;;;;;5109236;28;20467;-83
2020/12/05 02:25:59;;;;;;;8.60;6.27;;;5.40;99.90;;;;;;5116850;28;20861;-83
2020/12/05 02:28:26;;;;;;;7.77;6.00;;;5.40;99.90;;;;;;5117407;28;20472;-83
2020/12/05 02:30:52;;;;;;;8.20;6.10;;;5.50;99.90;;;;;;5115530;28;20461;-83
2020/12/05 02:33:19;;;;;;;7.07;6.00;;;5.50;99.90;;;;;;5114567;28;20444;-83
2020/12/05 02:35:46;;;;;;;6.57;5.60;;;5.50;99.90;;;;;;5096533;28;20453;-82
2020/12/05 02:38:17;;;;;;;8.17;5.00;;;5.50;99.90;;;;;;5096784;28;20461;-86
2020/12/05 02:40:45;;;;;;;9.33;6.30;;;5.60;99.90;;;;;;5105216;28;20445;-83
2020/12/05 02:43:12;;;;;;;8.57;6.13;;;5.60;99.90;;;;;;5115663;28;20451;-95
2020/12/05 02:45:40;;;;;;;8.33;7.43;;;5.60;99.90;;;;;;5117178;28;20448;-84
2020/12/05 02:48:07;;;;;;;8.30;6.13;;;5.60;99.90;;;;;;5117172;28;20918;-84
2020/12/05 02:50:33;;;;;;;9.10;5.83;;;5.60;99.90;;;;;;5116125;28;20474;-84
2020/12/05 02:53:00;;;;;;;7.00;6.17;;;5.60;99.90;;;;;;5116809;28;20515;-84
2020/12/05 02:55:26;;;;;;;9.37;6.50;;;5.70;99.90;;;;;;5115578;28;20502;-85
2020/12/05 02:57:54;;;;;;;8.90;6.73;;;5.70;99.90;;;;;;5117408;28;20912;-84
2020/12/05 03:00:21;;;;;;;7.90;6.40;;;5.70;99.90;;;;;;5117059;28;20449;-84
2020/12/05 03:02:48;;;;;;;8.90;6.70;;;5.70;99.90;;;;;;5117271;28;20530;-84
2020/12/05 03:05:14;;;;;;;8.83;6.77;;;5.70;99.90;;;;;;5117066;28;20452;-85
2020/12/05 03:07:41;;;;;;;10.17;7.53;;;5.70;99.90;;;;;;5117181;28;20481;-84
2020/12/05 03:10:07;;;;;;;7.43;6.53;;;5.70;99.90;;;;;;5119977;28;20452;-84
2020/12/05 03:12:34;;;;;;;7.20;6.37;;;5.70;99.90;;;;;;5119653;28;20448;-85
2020/12/05 03:15:01;;;;;;;11.50;8.00;;;5.70;99.90;;;;;;5115221;28;20506;-84
2020/12/05 03:17:28;;;;;;;7.83;6.70;;;5.70;99.90;;;;;;5100121;28;20464;-82
2020/12/05 03:19:54;;;;;;;12.63;7.47;;;5.70;99.90;;;;;;5117196;28;20449;-84
2020/12/05 03:22:21;;;;;;;10.67;7.67;;;5.70;99.90;;;;;;5122559;28;20445;-83
2020/12/05 03:24:47;;;;;;;9.13;8.23;;;5.70;99.90;;;;;;5120903;28;20445;-84
2020/12/05 03:27:14;;;;;;;12.27;9.40;;;5.80;99.90;;;;;;5102602;28;20526;-87
2020/12/05 03:29:41;;;;;;;10.07;8.50;;;5.70;99.90;;;;;;5119303;28;20449;-84
2020/12/05 03:32:12;;;;;;;9.73;7.63;;;5.70;99.90;;;;;;5116652;28;20457;-84
2020/12/05 03:34:41;;;;;;;13.90;8.27;;;5.70;99.90;;;;;;5119138;28;20770;-83
2020/12/05 03:37:08;;;;;;;10.10;8.07;;;5.70;99.90;;;;;;5118763;28;20459;-83
2020/12/05 03:39:35;;;;;;;11.40;8.57;;;5.70;99.90;;;;;;5118448;28;20478;-83
2020/12/05 03:42:01;;;;;;;11.47;9.50;;;5.70;99.90;;;;;;5119438;28;20444;-84
2020/12/05 03:44:28;;;;;;;10.90;9.03;;;5.70;99.90;;;;;;5102169;28;20453;-84
2020/12/05 03:46:54;;;;;;;10.10;8.00;;;5.60;99.90;;;;;;5100206;28;20868;-83
2020/12/05 03:49:22;;;;;;;9.23;8.17;;;5.60;99.90;;;;;;5118740;28;20575;-84
2020/12/05 03:51:48;;;;;;;12.30;9.60;;;5.60;99.90;;;;;;5119232;28;20552;-84
2020/12/05 03:54:15;;;;;;;10.67;6.87;;;5.70;99.90;;;;;;5118383;28;20444;-86
2020/12/05 03:56:41;;;;;;;9.10;7.43;;;5.70;99.90;;;;;;5118182;28;20512;-84
2020/12/05 03:59:08;;;;;;;10.33;8.90;;;5.60;99.90;;;;;;5118823;28;20929;-84
2020/12/05 04:01:34;;;;;;;11.47;8.17;;;5.70;99.90;;;;;;5118649;28;20722;-83
2020/12/05 04:04:01;;;;;;;12.90;8.40;;;5.60;99.90;;;;;;5118409;28;20461;-84
2020/12/05 04:06:28;;;;;;;11.13;8.37;;;5.60;99.90;;;;;;5117884;28;20447;-84
2020/12/05 04:08:54;;;;;;;11.40;8.57;;;5.60;99.90;;;;;;5114031;28;20484;-83
2020/12/05 04:11:21;;;;;;;14.30;8.60;;;5.60;99.90;;;;;;5118060;28;20551;-84
2020/12/05 04:13:48;;;;;;;10.13;8.50;;;5.60;99.90;;;;;;5118631;28;20441;-83
2020/12/05 04:16:17;;;;;;;11.33;9.13;;;5.60;99.90;;;;;;5117766;28;20449;-84
2020/12/05 04:18:44;;;;;;;12.73;8.93;;;5.60;99.90;;;;;;5113352;28;20509;-84
2020/12/05 04:21:10;;;;;;;9.93;8.53;;;5.60;99.90;;;;;;5101092;28;20478;-84
2020/12/05 04:23:37;;;;;;;17.07;11.97;;;5.60;99.90;;;;;;5105782;28;20526;-85
2020/12/05 04:26:04;;;;;;;12.23;10.37;;;5.60;99.90;;;;;;5099539;28;20539;-83
2020/12/05 04:28:30;;;;;;;14.70;11.40;;;5.60;99.90;;;;;;5100474;28;20484;-83
2020/12/05 04:30:57;;;;;;;17.97;13.40;;;5.60;99.90;;;;;;5100505;28;20449;-83
2020/12/05 04:33:23;;;;;;;16.03;12.10;;;5.60;99.90;;;;;;5110425;28;20832;-83
2020/12/05 04:35:50;;;;;;;14.43;12.17;;;5.60;99.90;;;;;;5127053;28;20509;-83
2020/12/05 04:38:16;;;;;;;18.90;12.63;;;5.60;99.90;;;;;;5110554;28;20458;-92
2020/12/05 04:40:44;;;;;;;19.53;14.57;;;5.50;99.90;;;;;;5106586;28;20444;-84
2020/12/05 04:43:10;;;;;;;16.20;12.77;;;5.50;99.90;;;;;;5117959;28;20501;-84
2020/12/05 04:45:37;;;;;;;22.30;16.37;;;5.50;99.90;;;;;;5116766;28;20850;-82
2020/12/05 04:48:04;;;;;;;18.40;12.70;;;5.50;99.90;;;;;;5121970;28;20480;-84
2020/12/05 04:50:33;;;;;;;22.60;15.83;;;5.50;99.90;;;;;;5129393;28;20778;-83
2020/12/05 04:53:10;;;;;;;23.47;14.10;;;5.50;99.90;;;;;;5115345;28;20445;-84
2020/12/05 04:55:41;;;;;;;18.40;13.23;;;5.50;99.90;;;;;;5122203;28;20887;-83
2020/12/05 04:58:17;;;;;;;20.60;14.87;;;5.50;99.90;;;;;;5114781;28;20452;-84
2020/12/05 05:00:45;;;;;;;21.50;15.53;;;5.50;99.90;;;;;;5116953;28;20448;-84
2020/12/05 05:03:15;;;;;;;22.30;15.97;;;5.50;99.90;;;;;;5116979;28;20452;-84
2020/12/05 05:05:42;;;;;;;20.47;15.10;;;5.50;99.90;;;;;;5117353;28;20437;-84
2020/12/05 05:08:12;;;;;;;18.07;15.43;;;5.50;99.90;;;;;;5116276;28;20531;-84
2020/12/05 05:10:39;;;;;;;24.73;17.00;;;5.50;99.90;;;;;;5111693;28;20471;-84
2020/12/05 05:13:12;;;;;;;24.53;18.03;;;5.50;99.90;;;;;;5116271;28;20452;-83
2020/12/05 05:15:41;;;;;;;21.30;16.33;;;5.40;99.90;;;;;;5116249;28;20519;-84
2020/12/05 05:18:08;;;;;;;25.00;18.77;;;5.50;99.90;;;;;;5115989;28;20456;-84
2020/12/05 05:20:38;;;;;;;20.73;16.10;;;5.50;99.90;;;;;;5115875;28;20502;-84
2020/12/05 05:23:13;;;;;;;24.63;16.70;;;5.60;99.90;;;;;;5116111;28;20445;-83
2020/12/05 05:25:57;;;;;;;22.00;17.13;;;5.60;99.90;;;;;;5115376;28;20471;-83
2020/12/05 05:28:27;;;;;;;23.20;16.87;;;5.50;99.90;;;;;;5101665;28;20849;-84
2020/12/05 05:31:02;;;;;;;22.23;17.13;;;5.60;99.90;;;;;;5106974;28;20532;-83
2020/12/05 05:33:38;;;;;;;23.13;16.73;;;5.60;99.90;;;;;;5104836;28;20906;-84
2020/12/05 05:36:21;;;;;;;25.63;18.20;;;5.60;99.90;;;;;;5096241;28;20569;-83
2020/12/05 05:38:58;;;;;;;22.17;16.10;;;5.50;99.90;;;;;;5095462;28;20489;-83
2020/12/05 05:41:25;;;;;;;21.70;15.40;;;5.50;99.90;;;;;;5101646;28;20448;-84
2020/12/05 05:43:59;;;;;;;19.63;14.97;;;5.50;99.90;;;;;;5114786;28;20443;-83
2020/12/05 05:46:28;;;;;;;24.67;16.63;;;5.50;99.90;;;;;;5095735;28;20442;-82
2020/12/05 05:48:56;;;;;;;18.60;14.07;;;5.50;99.90;;;;;;5099529;28;20476;-83
2020/12/05 05:51:38;;;;;;;19.67;15.60;;;5.50;99.90;;;;;;5114781;28;20445;-84
2020/12/05 05:54:12;;;;;;;20.90;15.60;;;5.40;99.90;;;;;;5113855;28;20452;-83
2020/12/05 05:56:39;;;;;;;20.27;15.17;;;5.30;99.90;;;;;;5116861;28;20927;-83
2020/12/05 05:59:06;;;;;;;25.13;16.60;;;5.30;99.90;;;;;;5109168;28;20448;-83
2020/12/05 06:01:36;;;;;;;21.97;15.93;;;5.30;99.90;;;;;;5094121;28;20479;-82
2020/12/05 06:04:07;;;;;;;19.50;13.83;;;5.30;99.90;;;;;;5113462;28;20825;-84
2020/12/05 06:06:34;;;;;;;22.03;16.33;;;5.30;99.90;;;;;;5114861;28;20955;-84
2020/12/05 06:09:03;;;;;;;19.90;15.17;;;5.30;99.90;;;;;;5114907;28;20502;-84
2020/12/05 06:11:33;;;;;;;18.67;14.43;;;5.20;99.90;;;;;;5115118;28;20456;-83
2020/12/05 06:14:02;;;;;;;21.27;15.83;;;5.20;99.90;;;;;;5115294;28;20455;-84
2020/12/05 06:16:28;;;;;;;26.30;18.00;;;5.20;99.90;;;;;;5112459;28;20535;-84
2020/12/05 06:18:57;;;;;;;22.83;14.87;;;5.20;99.90;;;;;;5094962;28;20450;-84
2020/12/05 06:21:31;;;;;;;19.20;14.40;;;5.20;99.90;;;;;;5095020;28;20540;-85
2020/12/05 06:24:05;;;;;;;21.70;15.60;;;5.20;99.90;;;;;;5108251;28;20471;-84
2020/12/05 06:26:34;;;;;;;22.10;15.63;;;5.20;99.90;;;;;;5112091;28;20560;-85
2020/12/05 06:29:01;;;;;;;20.43;14.80;;;5.20;99.90;;;;;;5115049;28;20534;-85
2020/12/05 06:31:42;;;;;;;19.37;15.00;;;5.20;99.90;;;;;;5114705;28;20493;-84
2020/12/05 06:34:10;;;;;;;19.23;14.50;;;5.20;99.90;;;;;;5115515;28;20449;-85
2020/12/05 06:36:39;;;;;;;20.30;14.70;;;5.20;99.90;;;;;;5115746;28;20473;-85
2020/12/05 06:39:17;;;;;;;24.13;16.30;;;5.20;99.90;;;;;;5115416;28;20453;-84
2020/12/05 06:41:46;;;;;;;21.23;15.03;;;5.20;99.90;;;;;;5115554;28;20535;-84
2020/12/05 06:44:15;;;;;;;19.07;15.70;;;5.10;99.90;;;;;;5118229;28;20454;-84
2020/12/05 06:47:00;;;;;;;21.20;15.10;;;5.10;99.90;;;;;;5111511;28;20442;-83
2020/12/05 06:49:49;;;;;;;23.50;17.70;;;5.10;99.90;;;;;;5110424;28;20502;-84
2020/12/05 06:52:35;;;;;;;20.53;14.07;;;5.10;99.90;;;;;;5098639;28;20924;-83
2020/12/05 06:55:08;;;;;;;21.03;15.17;;;5.10;99.90;;;;;;5102191;28;20444;-83
2020/12/05 06:57:35;;;;;;;23.73;17.37;;;5.10;99.90;;;;;;5118963;28;20479;-83
2020/12/05 07:00:20;;;;;;;22.83;17.13;;;5.00;99.90;;;;;;5118495;28;20463;-84
2020/12/05 07:02:52;;;;;;;18.93;14.20;;;5.00;99.90;;;;;;5098343;28;20475;-83
2020/12/05 07:05:27;;;;;;;27.33;18.33;;;5.00;99.90;;;;;;5106267;28;20454;-84
2020/12/05 07:07:55;;;;;;;25.43;17.47;;;5.00;99.90;;;;;;5106082;28;20472;-84
2020/12/05 07:10:26;;;;;;;28.27;17.83;;;4.90;99.90;;;;;;5098736;28;20481;-84
2020/12/05 07:12:53;;;;;;;21.40;15.37;;;4.90;99.90;;;;;;5098919;28;20436;-83
2020/12/05 07:15:21;;;;;;;23.93;16.40;;;4.90;99.90;;;;;;5098985;28;20492;-83
2020/12/05 07:17:49;;;;;;;20.00;14.60;;;4.90;99.90;;;;;;5109565;28;20824;-83
2020/12/05 07:20:15;;;;;;;20.67;14.93;;;4.80;99.90;;;;;;5120744;28;20500;-83
2020/12/05 07:22:45;;;;;;;21.77;14.80;;;4.80;99.90;;;;;;5119444;28;20448;-84
2020/12/05 07:25:12;;;;;;;24.90;18.30;;;4.80;99.90;;;;;;5114754;28;20474;-84
2020/12/05 07:27:39;;;;;;;24.37;15.77;;;4.70;99.90;;;;;;5104114;28;20504;-84
2020/12/05 07:30:05;;;;;;;18.50;15.30;;;4.80;99.90;;;;;;5110546;28;21048;-87
2020/12/05 07:32:36;;;;;;;19.80;14.40;;;4.80;99.90;;;;;;5109363;28;20463;-84
2020/12/05 07:35:05;;;;;;;21.83;15.77;;;4.80;99.90;;;;;;5112270;28;20924;-85
2020/12/05 07:37:33;;;;;;;22.53;15.53;;;4.80;99.90;;;;;;5104030;28;20452;-86
2020/12/05 07:40:02;;;;;;;23.50;15.07;;;4.90;99.90;;;;;;5107329;28;21007;-85
2020/12/05 07:42:33;;;;;;;19.43;14.73;;;4.90;99.90;;;;;;5106871;28;20458;-84
2020/12/05 07:45:03;;;;;;;21.50;15.30;;;4.90;99.90;;;;;;5110544;28;20474;-82
2020/12/05 07:47:30;;;;;;;23.80;15.90;;;4.90;99.90;;;;;;5113665;28;20554;-84
2020/12/05 07:49:59;;;;;;;21.53;15.63;;;4.90;99.90;;;;;;5112815;28;20479;-83
2020/12/05 07:52:30;;;;;;;24.67;17.07;;;4.90;99.90;;;;;;5097688;28;20776;-84
2020/12/05 07:54:59;;;;;;;19.60;14.23;;;4.90;99.90;;;;;;5096952;28;20436;-83
2020/12/05 07:57:30;;;;;;;21.87;15.10;;;4.90;99.90;;;;;;5097600;28;20448;-83
2020/12/05 08:00:06;;;;;;;18.47;13.10;;;4.90;99.90;;;;;;5097504;28;20448;-84
2020/12/05 08:02:45;;;;;;;20.73;15.80;;;5.00;99.90;;;;;;5096729;28;20432;-84
2020/12/05 08:05:32;;;;;;;20.03;15.03;;;4.90;99.90;;;;;;5097426;28;20528;-84
2020/12/05 08:08:02;;;;;;;19.40;13.70;;;4.90;99.90;;;;;;5097425;28;20497;-85
2020/12/05 08:10:30;;;;;;;20.93;14.50;;;4.90;99.90;;;;;;5112174;28;20449;-85
2020/12/05 08:13:20;;;;;;;18.70;13.87;;;4.90;99.90;;;;;;5117751;28;20446;-84
2020/12/05 08:15:52;;;;;;;19.20;13.50;;;4.90;99.90;;;;;;5108546;28;21054;-83
2020/12/05 08:18:21;;;;;;;19.90;14.80;;;5.00;99.90;;;;;;5102945;28;20443;-84
2020/12/05 08:20:48;;;;;;;20.67;14.10;;;4.90;99.90;;;;;;5109784;28;20499;-84
2020/12/05 08:23:29;;;;;;;20.67;14.20;;;4.90;99.90;;;;;;5117146;28;20561;-84
2020/12/05 08:26:01;;;;;;;21.97;15.10;;;4.90;99.90;;;;;;5115690;28;20484;-84
2020/12/05 08:28:32;;;;;;;15.43;11.13;;;4.90;99.90;;;;;;5116413;28;20536;-90
2020/12/05 08:31:04;;;;;;;16.47;12.90;;;5.10;99.90;;;;;;5097188;28;20441;-84
2020/12/05 08:33:31;;;;;;;19.40;15.53;;;5.10;99.90;;;;;;5096743;28;20441;-84
2020/12/05 08:35:58;;;;;;;16.53;13.30;;;5.20;99.90;;;;;;5096455;28;20522;-85
2020/12/05 08:38:25;;;;;;;17.73;12.93;;;5.20;99.90;;;;;;5114389;28;20960;-83
2020/12/05 08:41:02;;;;;;;18.23;12.97;;;5.30;99.90;;;;;;5105635;28;20452;-83
2020/12/05 08:43:32;;;;;;;20.70;12.70;;;5.30;99.90;;;;;;5103520;28;20499;-90
2020/12/05 08:45:59;;;;;;;22.67;12.90;;;5.40;99.90;;;;;;5105772;28;20448;-85
2020/12/05 08:48:25;;;;;;;17.03;12.20;;;5.50;99.90;;;;;;5110763;28;20481;-86
2020/12/05 08:50:52;;;;;;;15.20;11.33;;;5.40;99.90;;;;;;5103921;28;20448;-85
2020/12/05 08:53:21;;;;;;;16.57;12.83;;;5.40;99.90;;;;;;5112180;28;20750;-85
2020/12/05 08:55:49;;;;;;;15.37;11.47;;;5.30;99.90;;;;;;5115169;28;20447;-85
2020/12/05 08:58:16;;;;;;;15.53;11.03;;;5.30;99.90;;;;;;5102158;28;20459;-86
2020/12/05 09:00:51;;;;;;;17.70;14.17;;;5.30;99.90;;;;;;5101407;28;20448;-86
2020/12/05 09:03:22;;;;;;;15.77;11.67;;;5.40;99.90;;;;;;5102150;28;20775;-86
2020/12/05 09:05:51;;;;;;;15.07;10.50;;;5.40;99.90;;;;;;5095806;28;20502;-86
2020/12/05 09:08:20;;;;;;;15.20;12.40;;;5.40;99.90;;;;;;5102743;28;20491;-86
2020/12/05 09:10:47;;;;;;;14.20;10.40;;;5.50;99.90;;;;;;5110602;28;20492;-85
2020/12/05 09:13:14;;;;;;;12.70;9.83;;;5.50;99.90;;;;;;5095863;28;20467;-85
2020/12/05 09:16:01;;;;;;;11.77;8.87;;;5.50;99.90;;;;;;5103023;28;20515;-85
2020/12/05 09:18:40;;;;;;;12.23;9.30;;;5.60;99.90;;;;;;5109825;28;20533;-85
2020/12/05 09:21:14;;;;;;;13.77;9.73;;;5.60;99.90;;;;;;5101968;28;20456;-84
2020/12/05 09:23:41;;;;;;;12.00;9.10;;;5.60;99.90;;;;;;5109897;28;20455;-86
2020/12/05 09:26:08;;;;;;;11.83;8.70;;;5.50;99.90;;;;;;5106653;28;20528;-84
2020/12/05 09:28:35;;;;;;;14.37;8.80;;;5.60;99.90;;;;;;5105505;28;20561;-88
2020/12/05 09:31:08;;;;;;;10.63;7.77;;;5.70;99.90;;;;;;5102618;28;20471;-85
2020/12/05 09:33:38;;;;;;;11.23;8.57;;;5.70;99.90;;;;;;5108215;28;20435;-88
2020/12/05 09:36:04;;;;;;;14.57;8.73;;;5.60;99.90;;;;;;5110445;28;20441;-87
2020/12/05 09:38:31;;;;;;;9.80;7.70;;;5.60;99.90;;;;;;5101980;28;20526;-87
2020/12/05 09:40:58;;;;;;;9.83;7.33;;;5.50;99.90;;;;;;5098626;28;20490;-85
2020/12/05 09:43:24;;;;;;;8.87;7.17;;;5.60;99.90;;;;;;5108215;28;20441;-85
2020/12/05 09:45:51;;;;;;;10.50;6.97;;;5.70;99.90;;;;;;5104547;28;20498;-85
2020/12/05 09:48:18;;;;;;;8.73;6.90;;;5.80;99.90;;;;;;5114543;28;20789;-86
2020/12/05 09:50:45;;;;;;;9.10;6.80;;;5.80;99.90;;;;;;5106147;28;20769;-85
2020/12/05 09:53:12;;;;;;;7.83;5.60;;;5.80;99.90;;;;;;5102784;28;20695;-86
2020/12/05 09:55:38;;;;;;;6.80;4.83;;;5.90;99.90;;;;;;5115386;28;20448;-85
2020/12/05 09:58:05;;;;;;;7.60;5.57;;;5.90;99.90;;;;;;5116825;28;20452;-84
2020/12/05 10:00:32;;;;;;;9.17;5.80;;;6.00;99.90;;;;;;5110367;28;20441;-85
2020/12/05 10:02:58;;;;;;;6.70;4.53;;;6.20;99.90;;;;;;5115552;28;20482;-85
2020/12/05 10:05:26;;;;;;;6.43;4.63;;;6.20;99.90;;;;;;5087642;28;20527;-85
2020/12/05 10:07:52;;;;;;;7.03;4.87;;;6.30;99.90;;;;;;5100896;28;20484;-84
2020/12/05 10:10:19;;;;;;;6.30;4.37;;;6.30;99.90;;;;;;5114661;28;20458;-84
2020/12/05 10:12:47;;;;;;;5.23;4.17;;;6.40;99.90;;;;;;5116032;28;20448;-85
2020/12/05 10:15:14;;;;;;;5.20;3.63;;;6.50;99.90;;;;;;5109131;28;20441;-83
2020/12/05 10:17:42;;;;;;;4.57;3.20;;;6.50;99.90;;;;;;5096863;28;20478;-86
2020/12/05 10:20:10;;;;;;;3.97;2.93;;;6.50;99.90;;;;;;5118729;28;20508;-83
2020/12/05 10:22:37;;;;;;;4.13;3.10;;;6.60;99.90;;;;;;5101048;28;20480;-83
2020/12/05 10:25:05;;;;;;;5.23;3.40;;;6.60;99.90;;;;;;5117757;28;20447;-84
2020/12/05 10:27:33;;;;;;;5.60;3.47;;;6.70;99.90;;;;;;5113346;28;20768;-84
2020/12/05 10:29:59;;;;;;;4.40;2.90;;;6.70;99.90;;;;;;5103754;28;20448;-84
2020/12/05 10:32:26;;;;;;;4.50;2.67;;;6.80;99.90;;;;;;5102059;28;20442;-84
2020/12/05 10:34:52;;;;;;;4.43;2.70;;;6.80;99.90;;;;;;5102938;28;20470;-84
2020/12/05 10:37:19;;;;;;;4.27;2.93;;;6.90;99.90;;;;;;5104327;28;20449;-84
2020/12/05 10:39:46;;;;;;;4.30;3.20;;;6.90;99.90;;;;;;5112193;28;20502;-83
2020/12/05 10:42:13;;;;;;;4.53;3.37;;;7.00;99.90;;;;;;5111983;28;20440;-83
2020/12/05 10:44:39;;;;;;;3.90;2.87;;;7.00;99.90;;;;;;5099839;28;20462;-84
2020/12/05 10:47:06;;;;;;;3.53;2.80;;;7.00;99.90;;;;;;5114434;28;20834;-84
2020/12/05 10:49:32;;;;;;;4.63;2.83;;;7.00;99.90;;;;;;5109044;28;20530;-85
2020/12/05 10:51:59;;;;;;;3.60;2.67;;;7.00;99.90;;;;;;5107937;28;20500;-84
2020/12/05 10:54:25;;;;;;;4.47;2.83;;;7.00;99.90;;;;;;5110771;28;20453;-85
2020/12/05 10:56:53;;;;;;;4.33;2.87;;;7.00;99.90;;;;;;5115820;28;21008;-84
2020/12/05 10:59:19;;;;;;;5.50;3.40;;;7.00;99.90;;;;;;5114355;28;20452;-84
2020/12/05 11:01:48;;;;;;;3.50;2.70;;;7.10;99.90;;;;;;5116451;28;20484;-84
2020/12/05 11:04:15;;;;;;;3.60;2.53;;;7.10;99.90;;;;;;5117255;28;20445;-85
2020/12/05 11:06:41;;;;;;;4.30;2.80;;;7.20;99.90;;;;;;5107238;28;20449;-84
2020/12/05 11:09:08;;;;;;;3.87;2.50;;;7.30;99.90;;;;;;5109486;28;20813;-85
2020/12/05 11:11:34;;;;;;;3.93;3.00;;;7.60;99.90;;;;;;5101566;28;20835;-85
2020/12/05 11:14:01;;;;;;;2.87;2.20;;;8.20;99.90;;;;;;5113222;28;20517;-85
2020/12/05 11:16:28;;;;;;;3.63;2.43;;;8.80;99.90;;;;;;5101871;28;20446;-86
2020/12/05 11:18:56;;;;;;;3.83;2.60;;;9.00;99.90;;;;;;5101045;28;20476;-86
2020/12/05 11:21:22;;;;;;;2.70;2.03;;;9.30;99.90;;;;;;5120152;28;20483;-85
2020/12/05 11:23:49;;;;;;;3.80;2.30;;;9.10;99.90;;;;;;5118387;28;20889;-85
2020/12/05 11:26:20;;;;;;;2.90;2.10;;;8.90;99.90;;;;;;5116935;28;20473;-86
2020/12/05 11:28:47;;;;;;;4.03;2.33;;;8.50;99.90;;;;;;5115779;28;20495;-85
2020/12/05 11:31:14;;;;;;;2.43;1.93;;;8.30;99.90;;;;;;5118328;28;20460;-83
2020/12/05 11:33:41;;;;;;;4.00;2.20;;;8.20;99.90;;;;;;5121588;28;20437;-83
2020/12/05 11:36:07;;;;;;;3.13;1.93;;;7.80;99.90;;;;;;5120283;28;20753;-82
2020/12/05 11:38:34;;;;;;;3.57;2.10;;;7.80;99.90;;;;;;5120666;28;20509;-84
2020/12/05 11:41:00;;;;;;;2.87;2.00;;;7.70;99.90;;;;;;5122570;28;20494;-82
2020/12/05 11:43:26;;;;;;;2.80;2.20;;;7.80;99.90;;;;;;5120530;28;20449;-82
2020/12/05 11:45:53;;;;;;;3.57;2.00;;;7.80;99.90;;;;;;5118779;28;20528;-82
2020/12/05 11:48:20;;;;;;;3.37;2.17;;;8.10;99.90;;;;;;5116951;28;20624;-82
2020/12/05 11:50:47;;;;;;;2.83;2.13;;;8.00;99.90;;;;;;5120566;28;20793;-84
2020/12/05 11:53:13;;;;;;;3.80;1.90;;;8.10;99.90;;;;;;5117979;28;20461;-85
2020/12/05 11:55:40;;;;;;;4.43;1.93;;;8.20;99.90;;;;;;5117300;28;20465;-82
2020/12/05 11:58:06;;;;;;;3.03;1.90;;;8.20;99.90;;;;;;5120193;28;20445;-82
2020/12/05 12:00:33;;;;;;;2.73;1.97;;;8.20;99.90;;;;;;5118010;28;20449;-83
2020/12/05 12:02:59;;;;;;;2.97;2.23;;;8.30;99.90;;;;;;5117457;28;20736;-82
2020/12/05 12:05:32;;;;;;;8.87;1.90;;;8.40;99.90;;;;;;5097696;28;20472;-81
2020/12/05 12:08:01;;;;;;;3.00;1.63;;;8.50;99.90;;;;;;5098959;28;20543;-82
2020/12/05 12:10:27;;;;;;;3.07;1.80;;;8.50;99.90;;;;;;5080847;28;20486;-83
2020/12/05 12:12:54;;;;;;;2.90;1.93;;;8.40;99.90;;;;;;5101372;28;20830;-83
2020/12/05 12:15:20;;;;;;;2.90;1.33;;;8.80;99.90;;;;;;5101135;28;20450;-83
2020/12/05 12:17:47;;;;;;;3.10;1.60;;;9.60;99.90;;;;;;5108341;28;20478;-82
2020/12/05 12:20:13;;;;;;;2.40;1.30;;;10.20;99.90;;;;;;5110190;28;20453;-82
2020/12/05 12:22:43;;;;;;;2.47;1.23;;;10.10;99.90;;;;;;5119976;28;20442;-83
2020/12/05 12:25:09;;;;;;;2.47;1.50;;;9.60;99.90;;;;;;5117210;28;20482;-83
2020/12/05 12:27:39;;;;;;;2.47;1.30;;;9.40;99.90;;;;;;5112986;28;20934;-83
2020/12/05 12:30:05;;;;;;;2.23;1.20;;;9.40;99.90;;;;;;5115785;28;20553;-83
2020/12/05 12:32:32;;;;;;;2.50;1.50;;;9.40;99.90;;;;;;5118745;28;20460;-87
2020/12/05 12:34:59;;;;;;;3.87;1.30;;;9.10;99.90;;;;;;5115153;28;20442;-82
2020/12/05 12:37:26;;;;;;;2.00;1.17;;;9.20;99.90;;;;;;5117725;28;20441;-82
2020/12/05 12:39:55;;;;;;;3.20;1.13;;;9.60;99.90;;;;;;5111794;28;20449;-81
2020/12/05 12:42:28;;;;;;;2.10;1.03;;;10.10;99.90;;;;;;5120913;28;20480;-82
2020/12/05 12:45:00;;;;;;;3.77;1.83;;;9.50;99.90;;;;;;5102536;28;20451;-83
2020/12/05 12:47:39;;;;;;;2.80;1.40;;;8.80;99.90;;;;;;5098443;28;20488;-83
2020/12/05 12:50:07;;;;;;;2.50;1.20;;;8.60;99.90;;;;;;5098017;28;20821;-84
2020/12/05 12:52:33;;;;;;;3.10;1.37;;;8.30;99.90;;;;;;5117210;28;20533;-86
2020/12/05 12:55:00;;;;;;;2.73;1.10;;;8.20;99.90;;;;;;5116563;28;20441;-83
2020/12/05 12:57:30;;;;;;;3.10;1.10;;;8.10;99.90;;;;;;5117687;28;20494;-83
2020/12/05 12:59:59;;;;;;;2.57;1.00;;;8.00;99.90;;;;;;5117965;28;20526;-83